sensor_id;sensor_type;location;lat;lon;timestamp;pressure;altitude;pressure_sealevel;temperature;humidity
10115;BME280;74399;43.260;27.812;2023-12-20T00:01:06;100523.09;;;4.83;100.00
10115;BME280;74399;43.260;27.812;2023-12-20T00:03:50;100517.75;;;4.89;100.00
10115;BME280;74399;43.260;27.812;2023-12-20T00:06:34;100511.97;;;4.75;100.00
10115;BME280;74399;43.260;27.812;2023-12-20T00:09:19;100517.28;;;5.08;100.00
10115;BME280;74399;43.260;27.812;2023-12-20T00:12:05;100513.00;;;5.05;100.00
10115;BME280;74399;43.260;27.812;2023-12-20T00:14:50;100507.69;;;5.08;100.00
10115;BME280;74399;43.260;27.812;2023-12-20T00:17:34;100507.91;;;4.99;98.56
10115;BME280;74399;43.260;27.812;2023-12-20T00:20:18;100508.00;;;5.30;98.39
10115;BME280;74399;43.260;27.812;2023-12-20T00:23:03;100506.53;;;5.20;98.31
10115;BME280;74399;43.260;27.812;2023-12-20T00:25:47;100495.41;;;5.10;99.84
10115;BME280;74399;43.260;27.812;2023-12-20T00:28:33;100494.41;;;5.16;98.93
10115;BME280;74399;43.260;27.812;2023-12-20T00:31:17;100491.38;;;5.31;97.70
10115;BME280;74399;43.260;27.812;2023-12-20T00:34:02;100482.22;;;5.15;95.54
10115;BME280;74399;43.260;27.812;2023-12-20T00:36:46;100491.66;;;5.55;93.63
10115;BME280;74399;43.260;27.812;2023-12-20T00:39:30;100482.78;;;5.28;96.78
10115;BME280;74399;43.260;27.812;2023-12-20T00:42:15;100486.22;;;5.28;93.88
10115;BME280;74399;43.260;27.812;2023-12-20T00:45:01;100474.91;;;5.28;95.18
10115;BME280;74399;43.260;27.812;2023-12-20T00:47:47;100472.63;;;5.48;93.91
10115;BME280;74399;43.260;27.812;2023-12-20T00:50:31;100466.31;;;5.21;94.78
10115;BME280;74399;43.260;27.812;2023-12-20T00:53:16;100474.25;;;4.82;96.89
10115;BME280;74399;43.260;27.812;2023-12-20T00:56:00;100472.41;;;4.87;100.00
10115;BME280;74399;43.260;27.812;2023-12-20T00:58:44;100460.41;;;4.39;100.00
10115;BME280;74399;43.260;27.812;2023-12-20T01:01:29;100457.41;;;4.17;100.00
10115;BME280;74399;43.260;27.812;2023-12-20T01:04:16;100449.97;;;4.38;100.00
10115;BME280;74399;43.260;27.812;2023-12-20T01:07:00;100449.84;;;4.05;100.00
10115;BME280;74399;43.260;27.812;2023-12-20T01:09:45;100446.84;;;4.22;100.00
10115;BME280;74399;43.260;27.812;2023-12-20T01:12:29;100454.94;;;4.50;100.00
10115;BME280;74399;43.260;27.812;2023-12-20T01:15:13;100446.84;;;4.98;99.15
10115;BME280;74399;43.260;27.812;2023-12-20T01:17:59;100446.66;;;5.04;99.48
10115;BME280;74399;43.260;27.812;2023-12-20T01:20:44;100447.56;;;5.03;98.52
10115;BME280;74399;43.260;27.812;2023-12-20T01:23:28;100439.94;;;4.94;96.62
10115;BME280;74399;43.260;27.812;2023-12-20T01:26:12;100426.94;;;4.91;97.52
10115;BME280;74399;43.260;27.812;2023-12-20T01:28:56;100437.06;;;5.05;97.60
10115;BME280;74399;43.260;27.812;2023-12-20T01:31:40;100437.28;;;5.30;94.80
10115;BME280;74399;43.260;27.812;2023-12-20T01:34:26;100426.63;;;5.36;97.21
10115;BME280;74399;43.260;27.812;2023-12-20T01:37:10;100417.72;;;5.11;96.83
10115;BME280;74399;43.260;27.812;2023-12-20T01:39:56;100418.75;;;5.05;96.10
10115;BME280;74399;43.260;27.812;2023-12-20T01:42:41;100405.28;;;5.19;94.78
10115;BME280;74399;43.260;27.812;2023-12-20T01:45:25;100408.00;;;5.14;93.63
10115;BME280;74399;43.260;27.812;2023-12-20T01:48:10;100393.16;;;5.15;95.23
10115;BME280;74399;43.260;27.812;2023-12-20T01:50:56;100392.69;;;4.99;95.02
10115;BME280;74399;43.260;27.812;2023-12-20T01:53:41;100385.41;;;5.12;97.29
10115;BME280;74399;43.260;27.812;2023-12-20T01:56:26;100375.41;;;4.93;97.08
10115;BME280;74399;43.260;27.812;2023-12-20T01:59:12;100377.31;;;4.86;95.99
10115;BME280;74399;43.260;27.812;2023-12-20T02:01:57;100370.34;;;4.85;97.55
10115;BME280;74399;43.260;27.812;2023-12-20T02:04:41;100369.44;;;5.19;93.02
10115;BME280;74399;43.260;27.812;2023-12-20T02:07:28;100366.50;;;4.64;96.89
10115;BME280;74399;43.260;27.812;2023-12-20T02:10:13;100353.75;;;4.14;100.00
10115;BME280;74399;43.260;27.812;2023-12-20T02:12:57;100358.09;;;4.15;99.16
10115;BME280;74399;43.260;27.812;2023-12-20T02:15:42;100353.34;;;4.33;100.00
10115;BME280;74399;43.260;27.812;2023-12-20T02:18:26;100342.75;;;3.59;100.00
10115;BME280;74399;43.260;27.812;2023-12-20T02:21:11;100332.34;;;3.56;100.00
10115;BME280;74399;43.260;27.812;2023-12-20T02:23:56;100340.09;;;4.01;100.00
10115;BME280;74399;43.260;27.812;2023-12-20T02:26:40;100324.97;;;4.52;100.00
10115;BME280;74399;43.260;27.812;2023-12-20T02:29:28;100323.16;;;4.54;99.22
10115;BME280;74399;43.260;27.812;2023-12-20T02:32:13;100322.47;;;4.46;99.33
10115;BME280;74399;43.260;27.812;2023-12-20T02:34:58;100311.53;;;4.31;99.79
10115;BME280;74399;43.260;27.812;2023-12-20T02:37:42;100307.84;;;3.63;100.00
10115;BME280;74399;43.260;27.812;2023-12-20T02:40:28;100301.38;;;3.80;100.00
10115;BME280;74399;43.260;27.812;2023-12-20T02:43:13;100297.59;;;3.54;100.00
10115;BME280;74399;43.260;27.812;2023-12-20T02:45:57;100293.53;;;3.80;100.00
10115;BME280;74399;43.260;27.812;2023-12-20T02:48:41;100294.38;;;3.82;100.00
10115;BME280;74399;43.260;27.812;2023-12-20T02:51:26;100293.25;;;3.92;100.00
10115;BME280;74399;43.260;27.812;2023-12-20T02:54:10;100298.34;;;3.59;100.00
10115;BME280;74399;43.260;27.812;2023-12-20T02:56:55;100299.81;;;3.30;100.00
10115;BME280;74399;43.260;27.812;2023-12-20T02:59:40;100295.97;;;3.47;100.00
10115;BME280;74399;43.260;27.812;2023-12-20T03:02:24;100302.88;;;3.51;100.00
10115;BME280;74399;43.260;27.812;2023-12-20T03:05:08;100298.09;;;3.29;100.00
10115;BME280;74399;43.260;27.812;2023-12-20T03:07:52;100291.81;;;2.94;100.00
10115;BME280;74399;43.260;27.812;2023-12-20T03:10:37;100293.78;;;2.83;100.00
10115;BME280;74399;43.260;27.812;2023-12-20T03:13:23;100293.25;;;3.11;100.00
10115;BME280;74399;43.260;27.812;2023-12-20T03:16:08;100293.47;;;3.83;100.00
10115;BME280;74399;43.260;27.812;2023-12-20T03:18:53;100288.13;;;3.88;100.00
10115;BME280;74399;43.260;27.812;2023-12-20T03:21:37;100289.09;;;3.44;100.00
10115;BME280;74399;43.260;27.812;2023-12-20T03:24:21;100288.88;;;3.55;100.00
10115;BME280;74399;43.260;27.812;2023-12-20T03:27:05;100287.34;;;3.45;100.00
10115;BME280;74399;43.260;27.812;2023-12-20T03:29:50;100289.97;;;3.43;100.00
10115;BME280;74399;43.260;27.812;2023-12-20T03:32:34;100289.06;;;3.46;100.00
10115;BME280;74399;43.260;27.812;2023-12-20T03:35:19;100288.28;;;3.41;100.00
10115;BME280;74399;43.260;27.812;2023-12-20T03:38:03;100287.53;;;2.90;100.00
10115;BME280;74399;43.260;27.812;2023-12-20T03:40:47;100278.41;;;3.13;100.00
10115;BME280;74399;43.260;27.812;2023-12-20T03:43:31;100276.34;;;3.29;100.00
10115;BME280;74399;43.260;27.812;2023-12-20T03:46:17;100273.16;;;3.57;100.00
10115;BME280;74399;43.260;27.812;2023-12-20T03:49:01;100274.63;;;3.68;100.00
10115;BME280;74399;43.260;27.812;2023-12-20T03:51:46;100275.13;;;3.03;100.00
10115;BME280;74399;43.260;27.812;2023-12-20T03:54:30;100275.72;;;3.16;100.00
10115;BME280;74399;43.260;27.812;2023-12-20T03:57:14;100271.56;;;3.07;100.00
10115;BME280;74399;43.260;27.812;2023-12-20T03:59:58;100272.88;;;3.28;100.00
10115;BME280;74399;43.260;27.812;2023-12-20T04:02:46;100276.97;;;3.42;100.00
10115;BME280;74399;43.260;27.812;2023-12-20T04:05:30;100270.06;;;3.78;100.00
10115;BME280;74399;43.260;27.812;2023-12-20T04:08:14;100263.75;;;3.87;100.00
10115;BME280;74399;43.260;27.812;2023-12-20T04:10:59;100265.84;;;3.73;100.00
10115;BME280;74399;43.260;27.812;2023-12-20T04:13:43;100263.19;;;3.74;100.00
10115;BME280;74399;43.260;27.812;2023-12-20T04:16:27;100259.53;;;3.81;100.00
10115;BME280;74399;43.260;27.812;2023-12-20T04:19:12;100255.72;;;3.95;100.00
10115;BME280;74399;43.260;27.812;2023-12-20T04:21:56;100257.03;;;3.77;100.00
10115;BME280;74399;43.260;27.812;2023-12-20T04:24:41;100255.56;;;3.65;100.00
10115;BME280;74399;43.260;27.812;2023-12-20T04:27:25;100251.13;;;3.68;100.00
10115;BME280;74399;43.260;27.812;2023-12-20T04:30:10;100250.72;;;3.46;100.00
10115;BME280;74399;43.260;27.812;2023-12-20T04:32:54;100253.78;;;3.65;100.00
10115;BME280;74399;43.260;27.812;2023-12-20T04:35:41;100245.25;;;3.57;100.00
10115;BME280;74399;43.260;27.812;2023-12-20T04:38:25;100247.06;;;3.55;100.00
10115;BME280;74399;43.260;27.812;2023-12-20T04:41:10;100243.53;;;3.95;100.00
10115;BME280;74399;43.260;27.812;2023-12-20T04:43:58;100238.75;;;4.13;100.00
10115;BME280;74399;43.260;27.812;2023-12-20T04:46:43;100235.75;;;3.92;100.00
10115;BME280;74399;43.260;27.812;2023-12-20T04:49:27;100229.59;;;3.95;100.00
10115;BME280;74399;43.260;27.812;2023-12-20T04:52:13;100232.53;;;4.17;100.00
10115;BME280;74399;43.260;27.812;2023-12-20T04:54:58;100234.41;;;4.12;99.52
10115;BME280;74399;43.260;27.812;2023-12-20T04:57:44;100238.09;;;4.03;99.25
10115;BME280;74399;43.260;27.812;2023-12-20T05:00:28;100236.22;;;3.72;100.00
10115;BME280;74399;43.260;27.812;2023-12-20T05:03:12;100236.09;;;3.78;100.00
10115;BME280;74399;43.260;27.812;2023-12-20T05:05:57;100231.41;;;3.93;100.00
10115;BME280;74399;43.260;27.812;2023-12-20T05:08:43;100230.69;;;4.20;100.00
10115;BME280;74399;43.260;27.812;2023-12-20T05:11:27;100227.03;;;4.28;100.00
10115;BME280;74399;43.260;27.812;2023-12-20T05:14:13;100223.06;;;3.77;100.00
10115;BME280;74399;43.260;27.812;2023-12-20T05:16:57;100233.16;;;3.91;100.00
10115;BME280;74399;43.260;27.812;2023-12-20T05:19:42;100220.03;;;3.94;100.00
10115;BME280;74399;43.260;27.812;2023-12-20T05:22:26;100217.75;;;3.80;100.00
10115;BME280;74399;43.260;27.812;2023-12-20T05:25:12;100206.63;;;3.72;100.00
10115;BME280;74399;43.260;27.812;2023-12-20T05:27:57;100211.03;;;4.06;100.00
10115;BME280;74399;43.260;27.812;2023-12-20T05:30:41;100205.41;;;4.21;100.00
10115;BME280;74399;43.260;27.812;2023-12-20T05:33:25;100220.22;;;3.86;100.00
10115;BME280;74399;43.260;27.812;2023-12-20T05:36:09;100216.16;;;3.74;100.00
10115;BME280;74399;43.260;27.812;2023-12-20T05:38:56;100216.19;;;3.73;100.00
10115;BME280;74399;43.260;27.812;2023-12-20T05:41:41;100220.22;;;3.86;100.00
10115;BME280;74399;43.260;27.812;2023-12-20T05:44:26;100213.59;;;4.07;100.00
10115;BME280;74399;43.260;27.812;2023-12-20T05:47:10;100217.44;;;4.28;100.00
10115;BME280;74399;43.260;27.812;2023-12-20T05:49:54;100214.38;;;4.11;100.00
10115;BME280;74399;43.260;27.812;2023-12-20T05:52:38;100219.94;;;3.61;100.00
10115;BME280;74399;43.260;27.812;2023-12-20T05:55:23;100214.13;;;3.48;100.00
10115;BME280;74399;43.260;27.812;2023-12-20T05:58:08;100214.25;;;3.81;100.00
10115;BME280;74399;43.260;27.812;2023-12-20T06:00:52;100210.50;;;3.55;100.00
10115;BME280;74399;43.260;27.812;2023-12-20T06:03:37;100212.28;;;3.53;100.00
10115;BME280;74399;43.260;27.812;2023-12-20T06:06:26;100215.53;;;3.63;100.00
10115;BME280;74399;43.260;27.812;2023-12-20T06:09:10;100220.38;;;3.80;100.00
10115;BME280;74399;43.260;27.812;2023-12-20T06:11:55;100219.84;;;4.01;100.00
10115;BME280;74399;43.260;27.812;2023-12-20T06:14:40;100217.66;;;3.84;100.00
10115;BME280;74399;43.260;27.812;2023-12-20T06:17:24;100211.56;;;3.84;100.00
10115;BME280;74399;43.260;27.812;2023-12-20T06:20:10;100219.25;;;4.26;100.00
10115;BME280;74399;43.260;27.812;2023-12-20T06:22:54;100219.44;;;3.82;100.00
10115;BME280;74399;43.260;27.812;2023-12-20T06:25:38;100215.81;;;3.88;100.00
10115;BME280;74399;43.260;27.812;2023-12-20T06:28:22;100205.28;;;4.26;100.00
10115;BME280;74399;43.260;27.812;2023-12-20T06:31:08;100218.59;;;4.51;100.00
10115;BME280;74399;43.260;27.812;2023-12-20T06:33:52;100214.06;;;4.58;100.00
10115;BME280;74399;43.260;27.812;2023-12-20T06:36:40;100216.88;;;4.50;100.00
10115;BME280;74399;43.260;27.812;2023-12-20T06:39:24;100213.53;;;4.45;100.00
10115;BME280;74399;43.260;27.812;2023-12-20T06:42:09;100213.75;;;4.68;100.00
10115;BME280;74399;43.260;27.812;2023-12-20T06:44:53;100212.69;;;4.76;100.00
10115;BME280;74399;43.260;27.812;2023-12-20T06:47:38;100211.53;;;4.86;100.00
10115;BME280;74399;43.260;27.812;2023-12-20T06:50:23;100213.88;;;5.27;100.00
10115;BME280;74399;43.260;27.812;2023-12-20T06:53:07;100198.66;;;5.38;100.00
10115;BME280;74399;43.260;27.812;2023-12-20T06:55:51;100199.38;;;5.15;100.00
10115;BME280;74399;43.260;27.812;2023-12-20T06:58:35;100196.53;;;5.51;100.00
10115;BME280;74399;43.260;27.812;2023-12-20T07:01:20;100188.59;;;5.81;100.00
10115;BME280;74399;43.260;27.812;2023-12-20T07:04:08;100185.38;;;5.73;100.00
10115;BME280;74399;43.260;27.812;2023-12-20T07:06:53;100183.13;;;6.15;99.79
10115;BME280;74399;43.260;27.812;2023-12-20T07:09:40;100182.50;;;6.34;97.91
10115;BME280;74399;43.260;27.812;2023-12-20T07:12:26;100175.97;;;6.46;97.93
10115;BME280;74399;43.260;27.812;2023-12-20T07:15:11;100180.84;;;6.57;96.73
10115;BME280;74399;43.260;27.812;2023-12-20T07:17:55;100186.66;;;6.65;95.55
10115;BME280;74399;43.260;27.812;2023-12-20T07:20:41;100181.34;;;6.66;96.05
10115;BME280;74399;43.260;27.812;2023-12-20T07:23:25;100178.91;;;6.85;92.94
10115;BME280;74399;43.260;27.812;2023-12-20T07:26:10;100183.59;;;7.01;92.48
10115;BME280;74399;43.260;27.812;2023-12-20T07:28:54;100179.59;;;7.14;92.84
10115;BME280;74399;43.260;27.812;2023-12-20T07:31:38;100175.03;;;7.19;91.75
10115;BME280;74399;43.260;27.812;2023-12-20T07:34:22;100177.13;;;7.33;90.09
10115;BME280;74399;43.260;27.812;2023-12-20T07:37:08;100169.09;;;7.36;87.90
10115;BME280;74399;43.260;27.812;2023-12-20T07:39:54;100173.16;;;7.45;87.59
10115;BME280;74399;43.260;27.812;2023-12-20T07:42:38;100175.13;;;7.62;85.06
10115;BME280;74399;43.260;27.812;2023-12-20T07:45:22;100168.75;;;7.68;86.62
10115;BME280;74399;43.260;27.812;2023-12-20T07:48:07;100162.31;;;7.75;86.15
10115;BME280;74399;43.260;27.812;2023-12-20T07:50:52;100159.78;;;7.94;84.70
10115;BME280;74399;43.260;27.812;2023-12-20T07:53:37;100158.22;;;8.11;84.19
10115;BME280;74399;43.260;27.812;2023-12-20T07:56:21;100156.88;;;8.21;85.53
10115;BME280;74399;43.260;27.812;2023-12-20T07:59:06;100158.81;;;8.38;83.66
10115;BME280;74399;43.260;27.812;2023-12-20T08:02:03;100148.81;;;8.26;85.86
10115;BME280;74399;43.260;27.812;2023-12-20T08:04:48;100147.16;;;8.44;85.94
10115;BME280;74399;43.260;27.812;2023-12-20T08:07:32;100146.66;;;8.56;84.25
10115;BME280;74399;43.260;27.812;2023-12-20T08:10:18;100141.09;;;8.62;82.97
10115;BME280;74399;43.260;27.812;2023-12-20T08:13:03;100131.38;;;8.64;83.23
10115;BME280;74399;43.260;27.812;2023-12-20T08:15:47;100125.81;;;8.70;82.33
10115;BME280;74399;43.260;27.812;2023-12-20T08:18:31;100126.19;;;8.82;83.24
10115;BME280;74399;43.260;27.812;2023-12-20T08:21:16;100123.53;;;9.01;80.77
10115;BME280;74399;43.260;27.812;2023-12-20T08:24:03;100118.00;;;9.07;80.55
10115;BME280;74399;43.260;27.812;2023-12-20T08:26:49;100112.72;;;9.07;79.85
10115;BME280;74399;43.260;27.812;2023-12-20T08:29:33;100110.66;;;9.14;79.84
10115;BME280;74399;43.260;27.812;2023-12-20T08:32:17;100105.38;;;9.14;82.02
10115;BME280;74399;43.260;27.812;2023-12-20T08:35:02;100090.13;;;9.20;80.55
10115;BME280;74399;43.260;27.812;2023-12-20T08:37:46;100086.81;;;9.34;79.59
10115;BME280;74399;43.260;27.812;2023-12-20T08:40:31;100081.66;;;9.50;78.84
10115;BME280;74399;43.260;27.812;2023-12-20T08:43:16;100079.72;;;9.54;78.95
10115;BME280;74399;43.260;27.812;2023-12-20T08:46:02;100071.34;;;9.63;77.36
10115;BME280;74399;43.260;27.812;2023-12-20T08:48:46;100056.75;;;9.73;77.47
10115;BME280;74399;43.260;27.812;2023-12-20T08:51:31;100061.47;;;9.84;84.48
10115;BME280;74399;43.260;27.812;2023-12-20T08:54:16;100066.81;;;10.00;78.62
10115;BME280;74399;43.260;27.812;2023-12-20T08:57:02;100054.03;;;10.10;78.55
10115;BME280;74399;43.260;27.812;2023-12-20T08:59:50;100042.75;;;10.06;78.45
10115;BME280;74399;43.260;27.812;2023-12-20T09:02:34;100045.66;;;10.18;78.51
10115;BME280;74399;43.260;27.812;2023-12-20T09:05:20;100042.53;;;10.27;78.75
10115;BME280;74399;43.260;27.812;2023-12-20T09:08:05;100035.16;;;10.34;78.40
10115;BME280;74399;43.260;27.812;2023-12-20T09:10:50;100020.38;;;10.47;78.43
10115;BME280;74399;43.260;27.812;2023-12-20T09:13:36;100016.47;;;10.38;80.29
10115;BME280;74399;43.260;27.812;2023-12-20T09:16:22;100014.19;;;10.64;77.38
10115;BME280;74399;43.260;27.812;2023-12-20T09:19:07;100013.56;;;10.59;76.44
10115;BME280;74399;43.260;27.812;2023-12-20T09:21:51;100001.31;;;10.58;79.27
10115;BME280;74399;43.260;27.812;2023-12-20T09:24:35;99991.34;;;10.79;76.43
10115;BME280;74399;43.260;27.812;2023-12-20T09:27:20;99996.00;;;10.90;76.70
10115;BME280;74399;43.260;27.812;2023-12-20T09:30:05;99983.41;;;10.95;76.53
10115;BME280;74399;43.260;27.812;2023-12-20T09:32:51;99971.72;;;10.83;75.74
10115;BME280;74399;43.260;27.812;2023-12-20T09:35:35;99969.84;;;11.01;73.94
10115;BME280;74399;43.260;27.812;2023-12-20T09:38:20;99965.75;;;10.96;76.44
10115;BME280;74399;43.260;27.812;2023-12-20T09:41:05;99970.78;;;11.00;75.75
10115;BME280;74399;43.260;27.812;2023-12-20T09:43:49;99955.31;;;11.09;75.54
10115;BME280;74399;43.260;27.812;2023-12-20T09:46:38;99948.03;;;11.28;72.88
10115;BME280;74399;43.260;27.812;2023-12-20T09:49:27;99940.66;;;11.33;73.33
10115;BME280;74399;43.260;27.812;2023-12-20T09:52:13;99933.38;;;11.37;71.85
10115;BME280;74399;43.260;27.812;2023-12-20T09:54:58;99926.81;;;11.44;71.72
10115;BME280;74399;43.260;27.812;2023-12-20T09:57:42;99917.53;;;11.51;74.65
10115;BME280;74399;43.260;27.812;2023-12-20T10:00:27;99920.09;;;11.67;73.09
10115;BME280;74399;43.260;27.812;2023-12-20T10:03:13;99908.88;;;11.78;73.20
10115;BME280;74399;43.260;27.812;2023-12-20T10:06:00;99911.41;;;11.80;71.01
10115;BME280;74399;43.260;27.812;2023-12-20T10:08:45;99911.50;;;11.78;76.17
10115;BME280;74399;43.260;27.812;2023-12-20T10:11:29;99907.56;;;12.00;70.51
10115;BME280;74399;43.260;27.812;2023-12-20T10:14:13;99909.72;;;12.07;72.49
10115;BME280;74399;43.260;27.812;2023-12-20T10:17:02;99895.16;;;12.15;70.17
10115;BME280;74399;43.260;27.812;2023-12-20T10:19:47;99904.22;;;12.11;69.51
10115;BME280;74399;43.260;27.812;2023-12-20T10:22:33;99891.97;;;12.10;73.13
10115;BME280;74399;43.260;27.812;2023-12-20T10:25:17;99884.16;;;12.21;73.22
10115;BME280;74399;43.260;27.812;2023-12-20T10:28:12;99880.38;;;12.25;70.83
10115;BME280;74399;43.260;27.812;2023-12-20T10:30:57;99883.78;;;12.27;69.88
10115;BME280;74399;43.260;27.812;2023-12-20T10:33:41;99863.91;;;12.34;69.55
10115;BME280;74399;43.260;27.812;2023-12-20T10:36:26;99859.75;;;12.30;70.12
10115;BME280;74399;43.260;27.812;2023-12-20T10:39:14;99855.28;;;12.31;72.28
10115;BME280;74399;43.260;27.812;2023-12-20T10:41:59;99859.97;;;12.27;68.78
10115;BME280;74399;43.260;27.812;2023-12-20T10:44:44;99846.88;;;12.24;68.23
10115;BME280;74399;43.260;27.812;2023-12-20T10:47:28;99845.00;;;12.26;69.32
10115;BME280;74399;43.260;27.812;2023-12-20T10:50:14;99844.41;;;12.35;71.34
10115;BME280;74399;43.260;27.812;2023-12-20T10:52:59;99839.59;;;12.55;71.13
10115;BME280;74399;43.260;27.812;2023-12-20T10:55:45;99834.84;;;12.60;71.39
10115;BME280;74399;43.260;27.812;2023-12-20T10:58:32;99830.91;;;12.53;70.86
10115;BME280;74399;43.260;27.812;2023-12-20T11:01:18;99821.16;;;12.53;70.09
10115;BME280;74399;43.260;27.812;2023-12-20T11:04:06;99826.56;;;12.24;71.50
10115;BME280;74399;43.260;27.812;2023-12-20T11:06:58;99822.88;;;12.27;71.54
10115;BME280;74399;43.260;27.812;2023-12-20T11:09:49;99817.91;;;12.35;70.76
10115;BME280;74399;43.260;27.812;2023-12-20T11:12:41;99819.69;;;12.35;71.44
10115;BME280;74399;43.260;27.812;2023-12-20T11:15:29;99810.25;;;12.58;70.98
10115;BME280;74399;43.260;27.812;2023-12-20T11:18:15;99805.06;;;12.69;68.54
10115;BME280;74399;43.260;27.812;2023-12-20T11:21:01;99805.53;;;12.89;67.81
10115;BME280;74399;43.260;27.812;2023-12-20T11:23:46;99797.69;;;13.00;68.22
10115;BME280;74399;43.260;27.812;2023-12-20T11:26:31;99795.69;;;13.04;67.69
10115;BME280;74399;43.260;27.812;2023-12-20T11:29:33;99788.97;;;12.72;68.47
10115;BME280;74399;43.260;27.812;2023-12-20T11:32:28;99784.78;;;12.43;68.53
10115;BME280;74399;43.260;27.812;2023-12-20T11:35:19;99782.44;;;12.38;70.72
10115;BME280;74399;43.260;27.812;2023-12-20T11:38:04;99780.63;;;12.38;70.88
10115;BME280;74399;43.260;27.812;2023-12-20T11:40:49;99773.28;;;12.56;70.67
10115;BME280;74399;43.260;27.812;2023-12-20T11:43:34;99777.19;;;12.64;71.74
10115;BME280;74399;43.260;27.812;2023-12-20T11:46:20;99770.09;;;12.77;71.03
10115;BME280;74399;43.260;27.812;2023-12-20T11:49:05;99763.53;;;12.83;69.73
10115;BME280;74399;43.260;27.812;2023-12-20T11:51:49;99755.91;;;12.78;70.54
10115;BME280;74399;43.260;27.812;2023-12-20T11:54:33;99749.34;;;12.84;69.49
10115;BME280;74399;43.260;27.812;2023-12-20T11:57:17;99745.28;;;12.91;68.67
10115;BME280;74399;43.260;27.812;2023-12-20T12:00:02;99735.22;;;12.96;66.85
10115;BME280;74399;43.260;27.812;2023-12-20T12:02:58;99725.69;;;13.06;66.99
10115;BME280;74399;43.260;27.812;2023-12-20T12:05:47;99719.50;;;13.06;68.22
10115;BME280;74399;43.260;27.812;2023-12-20T12:08:31;99725.75;;;13.18;68.94
10115;BME280;74399;43.260;27.812;2023-12-20T12:11:16;99713.25;;;13.20;67.15
10115;BME280;74399;43.260;27.812;2023-12-20T12:14:01;99717.03;;;13.29;69.53
10115;BME280;74399;43.260;27.812;2023-12-20T12:16:45;99704.53;;;13.44;67.96
10115;BME280;74399;43.260;27.812;2023-12-20T12:19:31;99700.41;;;13.39;66.47
10115;BME280;74399;43.260;27.812;2023-12-20T12:22:18;99698.38;;;13.43;65.64
10115;BME280;74399;43.260;27.812;2023-12-20T12:25:10;99693.25;;;13.53;66.03
10115;BME280;74399;43.260;27.812;2023-12-20T12:27:55;99682.50;;;13.04;64.57
10115;BME280;74399;43.260;27.812;2023-12-20T12:30:40;99685.13;;;13.30;64.23
10115;BME280;74399;43.260;27.812;2023-12-20T12:33:35;99680.25;;;13.37;63.87
10115;BME280;74399;43.260;27.812;2023-12-20T12:36:21;99672.19;;;13.38;64.92
10115;BME280;74399;43.260;27.812;2023-12-20T12:39:06;99669.25;;;13.04;68.61
10115;BME280;74399;43.260;27.812;2023-12-20T12:41:51;99664.03;;;13.16;66.90
10115;BME280;74399;43.260;27.812;2023-12-20T12:44:35;99660.97;;;12.96;68.35
10115;BME280;74399;43.260;27.812;2023-12-20T12:47:19;99657.28;;;12.86;69.67
10115;BME280;74399;43.260;27.812;2023-12-20T12:50:04;99655.44;;;12.99;69.66
10115;BME280;74399;43.260;27.812;2023-12-20T12:52:49;99650.72;;;12.91;70.25
10115;BME280;74399;43.260;27.812;2023-12-20T12:55:35;99645.19;;;12.95;70.51
10115;BME280;74399;43.260;27.812;2023-12-20T12:58:19;99642.13;;;12.88;68.65
10115;BME280;74399;43.260;27.812;2023-12-20T13:01:03;99644.13;;;12.97;68.22
10115;BME280;74399;43.260;27.812;2023-12-20T13:03:48;99641.91;;;12.91;69.52
10115;BME280;74399;43.260;27.812;2023-12-20T13:06:32;99640.94;;;12.92;68.47
10115;BME280;74399;43.260;27.812;2023-12-20T13:09:18;99646.06;;;12.82;68.98
10115;BME280;74399;43.260;27.812;2023-12-20T13:12:03;99638.00;;;12.84;69.61
10115;BME280;74399;43.260;27.812;2023-12-20T13:14:49;99644.47;;;12.80;68.90
10115;BME280;74399;43.260;27.812;2023-12-20T13:17:33;99642.25;;;12.73;68.24
10115;BME280;74399;43.260;27.812;2023-12-20T13:20:17;99649.47;;;12.58;70.70
10115;BME280;74399;43.260;27.812;2023-12-20T13:23:02;99650.75;;;12.53;69.41
10115;BME280;74399;43.260;27.812;2023-12-20T13:25:48;99642.06;;;12.38;69.29
10115;BME280;74399;43.260;27.812;2023-12-20T13:28:32;99641.19;;;12.24;69.84
10115;BME280;74399;43.260;27.812;2023-12-20T13:31:17;99634.28;;;12.09;70.70
10115;BME280;74399;43.260;27.812;2023-12-20T13:34:01;99622.19;;;12.05;70.09
10115;BME280;74399;43.260;27.812;2023-12-20T13:36:46;99621.41;;;11.90;70.42
10115;BME280;74399;43.260;27.812;2023-12-20T13:39:30;99622.69;;;11.97;69.64
10115;BME280;74399;43.260;27.812;2023-12-20T13:42:17;99620.63;;;11.88;70.15
10115;BME280;74399;43.260;27.812;2023-12-20T13:45:04;99607.56;;;11.59;72.41
10115;BME280;74399;43.260;27.812;2023-12-20T13:47:48;99619.84;;;11.60;70.71
10115;BME280;74399;43.260;27.812;2023-12-20T13:50:33;99614.72;;;11.57;70.66
10115;BME280;74399;43.260;27.812;2023-12-20T13:53:18;99616.56;;;11.42;71.04
10115;BME280;74399;43.260;27.812;2023-12-20T13:56:03;99614.44;;;11.34;70.21
10115;BME280;74399;43.260;27.812;2023-12-20T13:58:48;99598.69;;;11.18;73.47
10115;BME280;74399;43.260;27.812;2023-12-20T14:01:34;99602.03;;;11.07;72.68
10115;BME280;74399;43.260;27.812;2023-12-20T14:04:18;99597.75;;;10.78;74.49
10115;BME280;74399;43.260;27.812;2023-12-20T14:07:22;99596.41;;;10.85;74.57
10115;BME280;74399;43.260;27.812;2023-12-20T14:10:07;99593.41;;;10.77;74.65
10115;BME280;74399;43.260;27.812;2023-12-20T14:12:52;99596.25;;;10.73;75.29
10115;BME280;74399;43.260;27.812;2023-12-20T14:15:37;99587.19;;;10.63;74.46
10115;BME280;74399;43.260;27.812;2023-12-20T14:18:22;99594.38;;;10.61;74.18